Time;durP1;ratioP1;P1;durP2;ratioP2;P2;SDS_P1;SDS_P2;PMS_P1;PMS_P2;Temp;Humidity;BMP_temperature;BMP_pressure;BME280_temperature;BME280_humidity;BME280_pressure;Samples;Min_cycle;Max_cycle;Signal;HPM_P1;HPM_P2
2021/04/10 00:01:17;;;;;;;4.35;2.08;;;11.70;99.90;;;;;;5032375;28;20041;-70
2021/04/10 00:03:44;;;;;;;4.20;1.60;;;11.70;99.90;;;;;;5032495;28;20062;-69
2021/04/10 00:06:11;;;;;;;6.50;1.83;;;11.60;99.90;;;;;;5032413;28;20067;-70
2021/04/10 00:08:38;;;;;;;3.80;1.50;;;11.60;99.90;;;;;;5032104;28;20029;-69
2021/04/10 00:11:04;;;;;;;2.72;1.48;;;11.60;99.90;;;;;;5032288;28;20030;-70
2021/04/10 00:13:30;;;;;;;8.75;2.25;;;11.50;99.90;;;;;;5032231;28;20064;-70
2021/04/10 00:15:56;;;;;;;7.53;1.70;;;11.50;99.90;;;;;;5030979;28;20496;-69
2021/04/10 00:18:22;;;;;;;6.95;2.17;;;11.40;99.90;;;;;;5031898;28;20033;-70
2021/04/10 00:20:50;;;;;;;8.73;2.28;;;11.50;99.90;;;;;;5032327;28;20034;-69
2021/04/10 00:23:16;;;;;;;5.03;2.00;;;11.50;99.90;;;;;;5047294;28;20179;-69
2021/04/10 00:25:42;;;;;;;7.45;2.10;;;11.50;99.90;;;;;;5032146;28;20503;-69
2021/04/10 00:28:08;;;;;;;10.80;2.88;;;11.70;99.90;;;;;;5031882;28;20038;-69
2021/04/10 00:30:33;;;;;;;6.30;1.80;;;11.90;99.90;;;;;;5032060;28;20025;-69
2021/04/10 00:32:59;;;;;;;5.38;2.22;;;12.00;99.90;;;;;;5032203;28;20042;-69
2021/04/10 00:35:28;;;;;;;5.10;2.10;;;12.00;99.90;;;;;;5031931;28;20033;-69
2021/04/10 00:37:57;;;;;;;8.50;2.20;;;12.00;99.90;;;;;;5032017;28;20033;-69
2021/04/10 00:40:23;;;;;;;6.00;1.75;;;12.00;99.90;;;;;;5032014;28;20030;-70
2021/04/10 00:42:49;;;;;;;4.32;1.77;;;12.00;99.90;;;;;;5032315;28;20121;-69
2021/04/10 00:45:15;;;;;;;5.30;2.08;;;12.20;99.90;;;;;;5035986;28;20041;-70
2021/04/10 00:47:41;;;;;;;7.30;1.63;;;12.20;99.90;;;;;;5035665;28;20119;-69
2021/04/10 00:50:08;;;;;;;4.50;1.52;;;12.30;99.90;;;;;;5035761;28;20064;-69
2021/04/10 00:52:35;;;;;;;4.25;1.65;;;12.30;99.90;;;;;;5035542;28;20041;-69
2021/04/10 00:55:05;;;;;;;12.57;2.28;;;12.40;99.70;;;;;;5035725;28;20045;-69
2021/04/10 00:57:31;;;;;;;4.85;1.42;;;12.40;99.70;;;;;;5035452;28;20056;-70
2021/04/10 00:59:57;;;;;;;8.05;1.70;;;12.50;99.50;;;;;;5035517;28;20033;-68
2021/04/10 01:02:25;;;;;;;9.07;1.48;;;12.50;99.60;;;;;;5035512;28;20103;-69
2021/04/10 01:04:52;;;;;;;3.50;1.67;;;12.50;99.30;;;;;;5035399;28;20112;-69
2021/04/10 01:07:18;;;;;;;7.07;1.85;;;12.50;99.20;;;;;;5035539;28;20040;-69
2021/04/10 01:09:48;;;;;;;4.90;1.50;;;12.50;99.30;;;;;;5033641;28;20045;-69
2021/04/10 01:12:20;;;;;;;7.28;1.63;;;12.50;99.10;;;;;;5035157;28;20037;-69
2021/04/10 01:15:04;;;;;;;8.50;1.77;;;12.50;99.10;;;;;;5035327;28;20356;-69
2021/04/10 01:18:02;;;;;;;3.97;1.50;;;12.50;99.10;;;;;;5035093;28;20071;-69
2021/04/10 01:20:52;;;;;;;5.63;1.77;;;12.60;99.00;;;;;;5048585;28;20147;-70
2021/04/10 01:23:36;;;;;;;3.80;1.83;;;12.50;99.10;;;;;;5035151;28;20441;-70
2021/04/10 01:26:02;;;;;;;6.22;1.60;;;12.50;98.80;;;;;;5034943;28;20022;-70
2021/04/10 01:28:57;;;;;;;8.45;2.03;;;12.60;98.50;;;;;;5034488;28;20095;-69
2021/04/10 01:31:36;;;;;;;3.45;1.17;;;12.60;98.60;;;;;;5034602;28;20781;-70
2021/04/10 01:34:06;;;;;;;8.40;1.85;;;12.60;98.30;;;;;;5049567;28;20030;-69
2021/04/10 01:36:37;;;;;;;4.68;1.38;;;12.70;98.20;;;;;;5050062;28;20067;-71
2021/04/10 01:39:09;;;;;;;2.80;1.55;;;12.70;97.90;;;;;;5049844;28;20041;-70
2021/04/10 01:41:40;;;;;;;7.95;2.63;;;12.80;97.90;;;;;;5049876;28;20021;-69
2021/04/10 01:44:07;;;;;;;4.85;1.50;;;12.80;97.90;;;;;;5049288;28;20037;-70
2021/04/10 01:46:34;;;;;;;6.30;1.63;;;12.80;97.70;;;;;;5049866;28;20037;-69
2021/04/10 01:49:02;;;;;;;3.55;1.77;;;12.80;97.80;;;;;;5049866;28;20026;-70
2021/04/10 01:51:28;;;;;;;5.60;1.65;;;12.70;98.10;;;;;;5049623;28;20030;-70
2021/04/10 01:53:55;;;;;;;5.38;1.65;;;12.70;97.80;;;;;;5049897;28;20028;-70
2021/04/10 01:56:22;;;;;;;5.13;1.67;;;12.80;97.70;;;;;;5049851;28;20088;-71
2021/04/10 01:58:49;;;;;;;4.53;1.42;;;12.80;97.70;;;;;;5049596;28;20451;-71
2021/04/10 02:01:17;;;;;;;3.83;1.40;;;12.80;97.50;;;;;;5049837;28;20068;-71
2021/04/10 02:03:49;;;;;;;5.70;1.55;;;12.90;97.60;;;;;;5049585;28;20029;-71
2021/04/10 02:06:16;;;;;;;3.90;1.52;;;12.80;97.40;;;;;;5049786;28;20358;-71
2021/04/10 02:08:44;;;;;;;2.78;0.98;;;12.80;97.50;;;;;;5049219;28;20466;-69
2021/04/10 02:11:14;;;;;;;4.90;1.35;;;12.80;97.50;;;;;;5034190;28;20033;-69
2021/04/10 02:13:41;;;;;;;3.72;1.15;;;12.90;97.40;;;;;;5049232;28;20029;-70
2021/04/10 02:16:07;;;;;;;4.88;1.90;;;12.90;97.20;;;;;;5033968;28;20029;-70
2021/04/10 02:18:36;;;;;;;6.53;1.55;;;12.90;97.20;;;;;;5033969;28;20033;-71
2021/04/10 02:21:08;;;;;;;4.38;1.30;;;13.00;96.70;;;;;;5033876;28;20034;-71
2021/04/10 02:23:43;;;;;;;4.20;1.95;;;13.00;96.60;;;;;;5033633;28;20112;-70
2021/04/10 02:26:09;;;;;;;5.85;1.40;;;13.10;96.40;;;;;;5034096;28;20080;-70
2021/04/10 02:28:35;;;;;;;8.70;1.40;;;13.10;96.30;;;;;;5049237;28;20033;-69
2021/04/10 02:31:03;;;;;;;2.10;1.30;;;13.10;96.30;;;;;;5033945;28;20036;-70
2021/04/10 02:33:39;;;;;;;9.07;1.17;;;13.20;96.30;;;;;;5048909;28;20033;-71
2021/04/10 02:36:09;;;;;;;4.05;1.25;;;13.20;95.90;;;;;;5032466;28;20125;-69
2021/04/10 02:38:37;;;;;;;3.60;1.48;;;13.20;96.10;;;;;;5048503;28;20052;-70
2021/04/10 02:41:22;;;;;;;6.57;1.25;;;13.30;95.90;;;;;;5048954;28;20025;-70
2021/04/10 02:44:05;;;;;;;3.38;1.50;;;13.30;96.00;;;;;;5033504;28;20037;-70
2021/04/10 02:46:56;;;;;;;7.97;1.30;;;13.30;95.90;;;;;;5033540;28;20482;-69
2021/04/10 02:49:30;;;;;;;;;;;13.30;95.80;;;;;;5032079;28;20094;-69
2021/04/10 02:52:00;;;;;;;2.92;0.93;;;13.30;95.80;;;;;;5033437;28;19982;-71
2021/04/10 02:54:31;;;;;;;10.82;1.33;;;13.30;95.90;;;;;;5048219;28;20404;-70
2021/04/10 02:57:11;;;;;;;8.70;1.08;;;13.30;96.00;;;;;;5048631;28;20025;-70
2021/04/10 02:59:44;;;;;;;2.60;1.23;;;13.30;96.00;;;;;;5048193;28;20060;-70
2021/04/10 03:02:12;;;;;;;2.70;1.15;;;13.40;96.10;;;;;;5048566;28;20498;-70
2021/04/10 03:04:45;;;;;;;3.38;1.10;;;13.30;96.30;;;;;;5031932;28;20042;-70
2021/04/10 03:07:13;;;;;;;4.25;0.90;;;13.20;96.50;;;;;;5047632;28;20029;-70
2021/04/10 03:09:45;;;;;;;5.63;1.23;;;13.20;96.40;;;;;;5048041;28;20498;-69
2021/04/10 03:12:19;;;;;;;4.68;1.38;;;13.20;96.50;;;;;;5032989;28;20065;-70
2021/04/10 03:14:47;;;;;;;8.40;2.95;;;13.20;96.70;;;;;;5032824;28;20101;-70
2021/04/10 03:17:16;;;;;;;3.85;1.42;;;13.10;96.80;;;;;;5048354;28;20033;-69
2021/04/10 03:19:45;;;;;;;4.50;1.00;;;13.10;96.90;;;;;;5048028;28;20036;-70
2021/04/10 03:22:15;;;;;;;6.85;1.27;;;13.10;97.10;;;;;;5047824;28;20375;-70
2021/04/10 03:24:41;;;;;;;6.72;1.75;;;13.00;97.20;;;;;;5048181;28;20038;-70
2021/04/10 03:27:07;;;;;;;3.72;0.95;;;13.00;97.40;;;;;;5032846;28;20037;-71
2021/04/10 03:29:35;;;;;;;6.55;1.10;;;13.00;97.30;;;;;;5032389;28;20030;-70
2021/04/10 03:32:02;;;;;;;5.13;1.52;;;13.00;97.50;;;;;;5048103;28;20116;-70
2021/04/10 03:34:29;;;;;;;5.60;1.48;;;13.00;97.70;;;;;;5048056;28;20116;-70
2021/04/10 03:36:56;;;;;;;5.38;1.30;;;13.00;98.20;;;;;;5032666;28;20425;-70
2021/04/10 03:39:22;;;;;;;3.88;1.30;;;12.90;98.20;;;;;;5047948;28;20030;-70
2021/04/10 03:41:48;;;;;;;2.70;1.25;;;13.00;98.40;;;;;;5047727;28;20091;-70
2021/04/10 03:44:13;;;;;;;6.63;1.30;;;12.90;98.80;;;;;;5032409;28;20112;-70
2021/04/10 03:46:39;;;;;;;3.05;1.52;;;12.80;99.30;;;;;;5047869;28;20041;-69
2021/04/10 03:49:06;;;;;;;7.03;2.25;;;12.90;99.40;;;;;;5032280;28;20052;-70
2021/04/10 03:51:33;;;;;;;5.85;1.40;;;12.90;99.70;;;;;;5032045;28;20471;-70
2021/04/10 03:54:00;;;;;;;5.93;1.10;;;12.90;99.90;;;;;;5032425;28;20044;-70
2021/04/10 03:56:26;;;;;;;3.40;1.30;;;12.80;99.90;;;;;;5032476;28;20033;-70
2021/04/10 03:58:52;;;;;;;8.20;1.52;;;12.80;99.90;;;;;;5047491;28;20076;-69
2021/04/10 04:01:18;;;;;;;2.92;1.60;;;12.80;99.90;;;;;;5032421;28;20029;-70
2021/04/10 04:03:44;;;;;;;6.18;1.77;;;12.90;99.90;;;;;;5030757;28;20433;-70
2021/04/10 04:06:10;;;;;;;5.40;1.50;;;12.80;99.90;;;;;;5032103;28;20482;-70
2021/04/10 04:08:36;;;;;;;4.97;1.50;;;12.80;99.90;;;;;;5032049;28;20040;-69
2021/04/10 04:11:03;;;;;;;4.15;1.55;;;12.80;99.90;;;;;;5031873;28;20029;-70
2021/04/10 04:13:29;;;;;;;4.47;1.60;;;12.80;99.90;;;;;;5032348;28;20087;-70
2021/04/10 04:15:55;;;;;;;3.45;1.42;;;12.90;99.90;;;;;;5031871;28;20038;-70
2021/04/10 04:18:20;;;;;;;4.55;1.50;;;12.90;99.90;;;;;;5033727;28;20040;-70
2021/04/10 04:20:46;;;;;;;11.10;1.77;;;12.90;99.90;;;;;;5036145;28;20080;-70
2021/04/10 04:23:12;;;;;;;6.78;1.40;;;13.00;99.90;;;;;;5036368;28;20030;-69
2021/04/10 04:25:38;;;;;;;5.85;1.60;;;12.90;99.90;;;;;;5036117;28;20045;-69
2021/04/10 04:28:04;;;;;;;3.47;1.73;;;12.90;99.90;;;;;;5051556;28;20518;-69
2021/04/10 04:30:30;;;;;;;6.78;1.85;;;12.90;99.90;;;;;;5036008;28;20046;-70
2021/04/10 04:32:55;;;;;;;5.85;1.50;;;12.80;99.90;;;;;;5034745;28;20086;-70
2021/04/10 04:35:21;;;;;;;4.35;1.50;;;12.80;99.90;;;;;;5036099;28;20089;-71
2021/04/10 04:37:47;;;;;;;6.35;1.58;;;12.80;99.90;;;;;;5034738;28;20083;-71
2021/04/10 04:40:14;;;;;;;7.43;1.30;;;12.80;99.90;;;;;;5051360;28;20045;-70
2021/04/10 04:42:40;;;;;;;7.57;1.38;;;12.70;99.90;;;;;;5035546;28;20225;-69
2021/04/10 04:45:07;;;;;;;3.80;1.95;;;12.70;99.90;;;;;;5035899;28;20128;-69
2021/04/10 04:47:33;;;;;;;3.00;1.27;;;12.80;99.90;;;;;;5051136;28;20021;-70
2021/04/10 04:50:00;;;;;;;2.00;1.10;;;12.80;99.90;;;;;;5035624;28;20055;-70
2021/04/10 04:52:31;;;;;;;3.28;1.05;;;12.70;99.90;;;;;;5051297;28;20041;-70
2021/04/10 04:54:58;;;;;;;4.57;1.23;;;12.70;99.90;;;;;;5035664;28;20025;-70
2021/04/10 04:57:23;;;;;;;5.10;1.23;;;12.70;99.90;;;;;;5035711;28;20037;-70
2021/04/10 04:59:49;;;;;;;5.15;1.70;;;12.60;99.90;;;;;;5035405;28;20103;-70
2021/04/10 05:02:15;;;;;;;7.88;1.67;;;12.70;99.90;;;;;;5035555;28;20541;-70
2021/04/10 05:04:42;;;;;;;7.35;1.42;;;12.60;99.90;;;;;;5033966;28;20030;-70
2021/04/10 05:07:07;;;;;;;10.88;1.95;;;12.60;99.90;;;;;;5035577;28;20446;-70
2021/04/10 05:09:33;;;;;;;7.07;1.50;;;12.60;99.90;;;;;;5050694;28;20073;-70
2021/04/10 05:11:59;;;;;;;3.00;1.33;;;12.60;99.90;;;;;;5034734;28;20038;-69
2021/04/10 05:14:25;;;;;;;4.03;1.40;;;12.60;99.90;;;;;;5035578;28;20377;-69
2021/04/10 05:16:51;;;;;;;6.43;1.45;;;12.60;99.90;;;;;;5050599;28;20037;-70
2021/04/10 05:19:17;;;;;;;5.00;1.48;;;12.60;99.90;;;;;;5037874;28;20381;-73
2021/04/10 05:21:43;;;;;;;8.93;1.38;;;12.50;99.90;;;;;;5053027;28;20068;-74
2021/04/10 05:24:09;;;;;;;4.25;1.52;;;12.50;99.90;;;;;;5048184;28;20116;-77
2021/04/10 05:26:35;;;;;;;3.78;1.30;;;12.50;99.90;;;;;;5046813;28;20238;-71
2021/04/10 05:29:01;;;;;;;12.38;1.88;;;12.40;99.90;;;;;;5045575;28;20080;-73
2021/04/10 05:31:30;;;;;;;9.55;2.15;;;12.40;99.90;;;;;;5040074;28;20078;-72
2021/04/10 05:33:56;;;;;;;4.20;1.42;;;12.40;99.90;;;;;;5051525;28;20386;-72
2021/04/10 05:36:22;;;;;;;8.65;2.30;;;12.30;99.90;;;;;;5050027;28;20144;-71
2021/04/10 05:38:47;;;;;;;4.43;1.50;;;12.40;99.90;;;;;;5034644;28;20116;-71
2021/04/10 05:41:13;;;;;;;4.65;1.00;;;12.30;99.90;;;;;;5034525;28;20431;-74
2021/04/10 05:43:39;;;;;;;3.97;1.00;;;12.30;99.90;;;;;;5033643;28;20566;-70
2021/04/10 05:46:06;;;;;;;5.63;1.20;;;12.30;99.90;;;;;;5034737;28;20033;-74
2021/04/10 05:48:32;;;;;;;4.40;1.13;;;12.10;99.90;;;;;;5034634;28;20643;-74
2021/04/10 05:50:59;;;;;;;6.25;1.70;;;12.10;99.90;;;;;;5034409;28;20048;-71
2021/04/10 05:53:28;;;;;;;3.53;1.15;;;12.10;99.90;;;;;;5034674;28;20030;-71
2021/04/10 05:55:54;;;;;;;4.35;1.08;;;12.10;99.90;;;;;;5033357;28;20033;-73
2021/04/10 05:58:20;;;;;;;3.60;0.98;;;12.10;99.90;;;;;;5034667;28;20034;-72
2021/04/10 06:00:46;;;;;;;2.55;1.10;;;12.10;99.90;;;;;;5032768;28;20038;-72
2021/04/10 06:03:15;;;;;;;4.50;1.08;;;12.00;99.90;;;;;;5049175;28;20068;-74
2021/04/10 06:05:45;;;;;;;2.58;1.08;;;12.10;99.90;;;;;;5053999;28;20449;-74
2021/04/10 06:08:11;;;;;;;2.73;0.90;;;12.10;99.90;;;;;;5054144;28;20021;-74
2021/04/10 06:10:37;;;;;;;8.18;1.70;;;12.10;99.90;;;;;;5054810;28;20629;-74
2021/04/10 06:13:03;;;;;;;7.13;1.50;;;12.00;99.90;;;;;;5053823;28;20025;-75
2021/04/10 06:15:29;;;;;;;3.03;1.65;;;11.90;99.90;;;;;;5054246;28;20036;-74
2021/04/10 06:17:55;;;;;;;5.32;0.93;;;12.00;99.90;;;;;;5053814;28;20064;-74
2021/04/10 06:20:21;;;;;;;6.35;1.00;;;12.00;99.90;;;;;;5054086;28;20052;-74
2021/04/10 06:22:47;;;;;;;2.97;1.15;;;11.90;99.90;;;;;;5053688;28;20033;-73
2021/04/10 06:25:13;;;;;;;3.58;1.02;;;12.00;99.90;;;;;;5052525;28;20032;-73
2021/04/10 06:27:39;;;;;;;5.38;1.02;;;11.90;99.90;;;;;;5046931;28;20076;-72
2021/04/10 06:30:07;;;;;;;1.65;0.90;;;11.80;99.90;;;;;;5033438;28;20065;-74
2021/04/10 06:32:33;;;;;;;6.82;1.40;;;11.80;99.90;;;;;;5053032;28;20469;-74
2021/04/10 06:34:59;;;;;;;8.00;1.45;;;11.90;99.90;;;;;;5073536;28;20025;-74
2021/04/10 06:37:25;;;;;;;5.50;1.20;;;11.80;99.90;;;;;;5073726;28;20392;-73
2021/04/10 06:39:50;;;;;;;5.25;1.30;;;11.80;99.90;;;;;;5071869;28;20477;-68
2021/04/10 06:42:16;;;;;;;5.35;0.88;;;11.70;99.90;;;;;;5043931;28;20078;-74
2021/04/10 06:44:42;;;;;;;3.50;1.38;;;11.80;99.90;;;;;;5068792;28;20470;-71
2021/04/10 06:47:10;;;;;;;2.40;0.93;;;11.80;99.90;;;;;;5052826;28;20035;-72
2021/04/10 06:49:37;;;;;;;2.45;0.82;;;11.80;99.90;;;;;;5043554;28;20025;-75
2021/04/10 06:52:03;;;;;;;2.55;1.23;;;11.60;99.90;;;;;;5046944;28;20071;-70
2021/04/10 06:54:37;;;;;;;3.25;1.13;;;11.70;99.90;;;;;;5042315;28;20025;-71
2021/04/10 06:57:18;;;;;;;3.05;1.08;;;11.70;99.90;;;;;;5046769;28;20560;-74
2021/04/10 07:00:08;;;;;;;1.98;0.90;;;11.70;99.90;;;;;;5068615;28;20029;-75
2021/04/10 07:02:37;;;;;;;6.60;1.20;;;11.80;99.90;;;;;;5066179;28;20060;-76
2021/04/10 07:05:04;;;;;;;3.28;0.90;;;11.70;99.90;;;;;;5073122;28;20064;-73
2021/04/10 07:07:30;;;;;;;9.43;1.33;;;11.70;99.90;;;;;;5073111;28;20432;-73
2021/04/10 07:09:57;;;;;;;4.28;1.15;;;11.60;99.90;;;;;;5072566;28;20072;-74
2021/04/10 07:12:22;;;;;;;1.92;0.82;;;11.70;99.90;;;;;;5071487;28;20466;-74
2021/04/10 07:14:48;;;;;;;3.78;1.23;;;11.70;99.90;;;;;;5072799;28;20025;-74
2021/04/10 07:17:15;;;;;;;3.53;1.23;;;11.70;99.90;;;;;;5072611;28;20028;-74
2021/04/10 07:19:42;;;;;;;1.63;0.75;;;11.70;99.90;;;;;;5072930;28;20039;-73
2021/04/10 07:22:10;;;;;;;2.65;0.93;;;11.60;99.90;;;;;;5071434;28;20028;-73
2021/04/10 07:24:48;;;;;;;4.47;0.90;;;11.60;99.90;;;;;;5072840;28;20040;-73
2021/04/10 07:27:25;;;;;;;2.88;0.95;;;11.60;99.90;;;;;;5072713;28;20035;-72
2021/04/10 07:29:54;;;;;;;2.58;1.05;;;11.50;99.90;;;;;;5072313;28;20070;-72
2021/04/10 07:32:34;;;;;;;2.97;1.17;;;11.60;99.90;;;;;;5064590;28;20112;-73
2021/04/10 07:35:06;;;;;;;1.95;1.35;;;11.60;99.90;;;;;;5052199;28;20036;-74
2021/04/10 07:37:42;;;;;;;2.78;1.10;;;11.50;99.90;;;;;;5052283;28;20021;-73
2021/04/10 07:40:17;;;;;;;4.43;1.10;;;11.50;99.90;;;;;;5052334;28;20044;-73
2021/04/10 07:42:46;;;;;;;8.00;1.13;;;11.50;99.90;;;;;;5049522;28;20083;-71
2021/04/10 07:45:21;;;;;;;4.05;1.20;;;11.50;99.90;;;;;;5043872;28;20398;-73
2021/04/10 07:47:47;;;;;;;3.22;0.98;;;11.40;99.90;;;;;;5032260;28;20091;-73
2021/04/10 07:50:26;;;;;;;4.28;1.00;;;11.30;99.90;;;;;;5032180;28;20029;-73
2021/04/10 07:52:53;;;;;;;3.83;1.10;;;11.30;99.90;;;;;;5038234;28;20029;-75
2021/04/10 07:55:42;;;;;;;2.90;1.20;;;11.10;99.90;;;;;;5031313;28;20390;-72
2021/04/10 07:58:34;;;;;;;2.95;0.95;;;11.10;99.90;;;;;;5052302;28;20036;-72
2021/04/10 08:01:09;;;;;;;3.58;1.10;;;11.00;99.90;;;;;;5052070;28;20033;-72
2021/04/10 08:03:43;;;;;;;4.35;1.08;;;10.90;99.90;;;;;;5070693;28;20043;-72
2021/04/10 08:06:09;;;;;;;3.55;1.10;;;10.80;99.90;;;;;;5070833;28;20488;-72
2021/04/10 08:09:10;;;;;;;6.00;1.17;;;10.80;99.90;;;;;;5072013;28;20089;-72
2021/04/10 08:11:41;;;;;;;4.43;1.02;;;10.80;99.90;;;;;;4996792;28;20107;-72
2021/04/10 08:14:11;;;;;;;2.42;1.10;;;10.90;99.90;;;;;;5024924;28;20041;-72
2021/04/10 08:16:53;;;;;;;2.60;0.85;;;11.00;99.90;;;;;;5033436;28;20036;-72
2021/04/10 08:19:32;;;;;;;2.00;0.90;;;11.10;99.90;;;;;;5062614;28;20037;-72
2021/04/10 08:21:59;;;;;;;2.15;1.10;;;11.20;99.90;;;;;;5051775;28;20535;-72
2021/04/10 08:24:42;;;;;;;4.60;1.45;;;11.20;99.90;;;;;;5052036;28;20064;-72
2021/04/10 08:27:13;;;;;;;5.20;1.25;;;11.30;99.90;;;;;;5051663;28;20370;-72
2021/04/10 08:29:43;;;;;;;3.13;1.38;;;11.30;99.90;;;;;;5051968;28;20021;-71
2021/04/10 08:32:10;;;;;;;1.20;0.80;;;11.40;99.90;;;;;;5052639;28;20037;-72
2021/04/10 08:34:37;;;;;;;2.67;1.00;;;11.30;99.90;;;;;;5048436;28;20420;-72
2021/04/10 08:37:08;;;;;;;2.15;0.80;;;11.40;99.90;;;;;;5044567;28;20486;-72
2021/04/10 08:39:39;;;;;;;4.13;1.00;;;11.50;99.90;;;;;;5050678;28;20033;-71
2021/04/10 08:42:06;;;;;;;1.98;0.82;;;11.40;99.90;;;;;;5051109;28;20029;-70
2021/04/10 08:44:34;;;;;;;8.65;1.15;;;11.50;99.90;;;;;;5044690;28;20156;-69
2021/04/10 08:47:02;;;;;;;6.03;1.10;;;11.40;99.90;;;;;;5063205;28;20028;-72
2021/04/10 08:49:35;;;;;;;7.90;0.90;;;11.50;99.90;;;;;;5052012;28;20033;-73
2021/04/10 08:52:10;;;;;;;4.18;1.13;;;11.50;99.90;;;;;;5050628;28;20045;-72
2021/04/10 08:54:40;;;;;;;4.28;0.80;;;11.50;99.90;;;;;;5050704;28;20058;-72
2021/04/10 08:57:12;;;;;;;3.75;1.10;;;11.50;99.90;;;;;;5050513;28;20386;-72
2021/04/10 08:59:45;;;;;;;1.67;0.73;;;11.50;99.90;;;;;;5050476;28;20033;-71
2021/04/10 09:02:21;;;;;;;3.92;1.00;;;11.50;99.90;;;;;;5058262;28;20029;-72
2021/04/10 09:05:00;;;;;;;3.20;1.08;;;11.50;99.90;;;;;;5072507;28;20031;-72
2021/04/10 09:07:44;;;;;;;5.00;1.33;;;11.50;99.90;;;;;;5075434;28;20056;-73
2021/04/10 09:10:39;;;;;;;5.65;1.15;;;11.50;99.90;;;;;;5074588;28;20079;-73
2021/04/10 09:13:05;;;;;;;1.85;0.80;;;11.40;99.90;;;;;;5065940;28;20044;-72
2021/04/10 09:15:32;;;;;;;2.55;1.17;;;11.30;99.90;;;;;;5075241;28;20032;-71
2021/04/10 09:18:04;;;;;;;4.80;0.80;;;11.40;99.90;;;;;;5074947;28;20576;-73
2021/04/10 09:20:45;;;;;;;4.55;1.15;;;11.40;99.90;;;;;;5074010;28;20058;-73
2021/04/10 09:23:31;;;;;;;2.92;1.20;;;11.50;99.90;;;;;;5074960;28;20040;-73
2021/04/10 09:26:14;;;;;;;1.35;0.70;;;11.40;99.90;;;;;;5073664;28;20044;-74
2021/04/10 09:28:55;;;;;;;3.33;1.13;;;11.40;99.90;;;;;;5067474;28;20025;-73
2021/04/10 09:31:41;;;;;;;7.25;1.00;;;11.30;99.90;;;;;;5044263;28;20048;-72
2021/04/10 09:34:53;;;;;;;3.17;0.75;;;11.30;99.90;;;;;;5034666;28;20037;-69
2021/04/10 09:37:19;;;;;;;5.78;1.08;;;11.20;99.90;;;;;;5049950;28;20068;-72
2021/04/10 09:40:29;;;;;;;2.28;1.00;;;11.20;99.90;;;;;;5034811;28;20065;-70
2021/04/10 09:43:05;;;;;;;2.40;0.85;;;11.20;99.90;;;;;;5020555;28;20042;-73
2021/04/10 09:45:34;;;;;;;1.95;1.00;;;11.20;99.90;;;;;;5034776;28;20061;-69
2021/04/10 09:48:04;;;;;;;5.07;0.93;;;11.30;99.90;;;;;;5034441;28;20045;-71
2021/04/10 09:50:49;;;;;;;5.53;1.30;;;11.20;99.90;;;;;;5034253;28;20387;-71
2021/04/10 09:53:24;;;;;;;3.08;1.33;;;11.20;99.90;;;;;;5034587;28;20030;-72
2021/04/10 09:56:03;;;;;;;5.15;1.08;;;11.30;99.90;;;;;;5034620;28;20025;-72
2021/04/10 09:58:42;;;;;;;8.35;1.25;;;11.40;99.90;;;;;;5061089;28;20033;-70
2021/04/10 10:01:16;;;;;;;3.00;1.05;;;11.50;99.90;;;;;;5040747;28;20465;-69
2021/04/10 10:03:42;;;;;;;4.53;1.00;;;11.50;99.90;;;;;;5068836;28;20033;-70
2021/04/10 10:06:31;;;;;;;1.98;0.90;;;11.60;99.90;;;;;;5052992;28;20029;-70
2021/04/10 10:08:57;;;;;;;1.88;0.98;;;11.70;99.90;;;;;;5066751;28;20076;-70
2021/04/10 10:11:23;;;;;;;7.10;1.08;;;11.70;99.90;;;;;;5034189;28;20034;-70
2021/04/10 10:13:49;;;;;;;2.00;1.23;;;11.70;99.90;;;;;;5053985;28;20477;-69
2021/04/10 10:16:25;;;;;;;7.78;2.28;;;11.70;99.90;;;;;;5053706;28;20044;-69
2021/04/10 10:18:51;;;;;;;5.38;1.10;;;11.60;99.90;;;;;;5055936;28;20063;-69
2021/04/10 10:21:20;;;;;;;4.57;1.02;;;11.70;99.90;;;;;;5054387;28;20025;-69
2021/04/10 10:23:58;;;;;;;3.08;1.02;;;11.70;99.90;;;;;;5050886;28;20025;-72
2021/04/10 10:26:39;;;;;;;5.15;1.17;;;11.70;99.90;;;;;;5065998;28;20123;-71
2021/04/10 10:29:14;;;;;;;1.77;1.02;;;11.70;99.90;;;;;;5014591;28;20185;-73
2021/04/10 10:31:45;;;;;;;4.45;1.30;;;11.50;99.90;;;;;;5037604;28;20124;-70
2021/04/10 10:34:15;;;;;;;3.25;1.30;;;11.50;99.90;;;;;;5073506;28;20029;-70
2021/04/10 10:36:43;;;;;;;8.50;1.30;;;11.60;99.90;;;;;;5056819;28;20041;-70
2021/04/10 10:39:30;;;;;;;3.50;1.30;;;11.60;99.90;;;;;;5053370;28;20405;-72
2021/04/10 10:41:58;;;;;;;2.47;1.00;;;11.70;99.90;;;;;;5053674;28;20021;-71
2021/04/10 10:44:24;;;;;;;3.08;1.20;;;11.70;99.90;;;;;;5068640;28;20072;-77
2021/04/10 10:47:06;;;;;;;2.33;1.30;;;11.70;99.90;;;;;;5053864;28;20045;-73
2021/04/10 10:49:32;;;;;;;;;;;11.70;99.90;;;;;;5053847;28;20025;-74
2021/04/10 10:51:58;;;;;;;;;;;11.70;99.90;;;;;;5053817;28;20011;-73
2021/04/10 10:54:37;;;;;;;;;;;11.80;99.90;;;;;;5052523;28;20423;-74
2021/04/10 10:57:12;;;;;;;;;;;12.00;99.90;;;;;;5053469;28;19919;-75
2021/04/10 10:59:38;;;;;;;;;;;12.00;99.90;;;;;;5045493;28;19982;-75
2021/04/10 11:02:03;;;;;;;;;;;11.90;99.90;;;;;;5058042;28;20006;-75
2021/04/10 11:04:38;;;;;;;;;;;12.00;99.90;;;;;;5072146;28;19912;-75
2021/04/10 11:07:07;;;;;;;;;;;12.10;99.90;;;;;;5055568;28;20042;-75
2021/04/10 11:09:41;;;;;;;;;;;12.10;99.90;;;;;;5073214;28;19923;-76
2021/04/10 11:12:12;;;;;;;;;;;12.10;99.90;;;;;;5073256;28;19918;-72
2021/04/10 11:14:45;;;;;;;;;;;12.00;99.90;;;;;;5072463;28;19912;-74
2021/04/10 11:17:12;;;;;;;;;;;12.10;99.90;;;;;;5060955;28;19967;-71
2021/04/10 11:19:45;;;;;;;;;;;12.00;99.90;;;;;;5056556;28;19913;-70
2021/04/10 11:22:17;;;;;;;;;;;12.00;99.90;;;;;;5033361;28;19957;-73
2021/04/10 11:24:47;;;;;;;;;;;11.90;99.90;;;;;;5033460;28;19964;-73
2021/04/10 11:27:18;;;;;;;;;;;11.90;99.90;;;;;;5041554;28;19970;-73
2021/04/10 11:29:59;;;;;;;;;;;11.90;99.90;;;;;;5053260;28;19985;-74
2021/04/10 11:32:39;;;;;;;;;;;11.90;99.90;;;;;;5068040;28;19967;-73
2021/04/10 11:35:07;;;;;;;;;;;11.90;99.90;;;;;;5052957;28;20265;-75
2021/04/10 11:37:33;;;;;;;;;;;12.00;99.90;;;;;;5022441;28;19943;-73
2021/04/10 11:40:00;;;;;;;;;;;12.00;99.90;;;;;;5051972;28;19912;-72
2021/04/10 11:42:37;;;;;;;;;;;11.90;99.90;;;;;;5067944;28;19913;-73
2021/04/10 11:45:11;;;;;;;;;;;11.90;99.90;;;;;;5053011;28;20284;-73
2021/04/10 11:47:39;;;;;;;;;;;11.90;99.90;;;;;;5052464;28;19913;-73
2021/04/10 11:50:11;;;;;;;;;;;11.90;99.90;;;;;;5052525;28;20377;-74
2021/04/10 11:52:37;;;;;;;;;;;11.90;99.90;;;;;;5051296;28;19939;-73
2021/04/10 11:55:06;;;;;;;;;;;12.00;99.90;;;;;;5052420;28;20357;-73
2021/04/10 11:57:35;;;;;;;;;;;12.00;99.90;;;;;;5052750;28;20484;-73
2021/04/10 12:00:05;;;;;;;;;;;12.10;99.90;;;;;;5052752;28;20343;-72
2021/04/10 12:02:47;;;;;;;;;;;12.20;99.90;;;;;;5077280;28;19916;-73
2021/04/10 12:05:23;;;;;;;;;;;12.10;99.90;;;;;;5071541;28;19912;-72
2021/04/10 12:08:05;;;;;;;;;;;12.00;99.90;;;;;;5072660;28;19913;-73
2021/04/10 12:10:31;;;;;;;;;;;12.10;99.90;;;;;;5072024;28;19931;-73
2021/04/10 12:12:57;;;;;;;;;;;12.10;99.90;;;;;;5072868;28;19924;-72
2021/04/10 12:15:31;;;;;;;;;;;12.30;99.90;;;;;;5069971;28;19920;-73
2021/04/10 12:17:56;;;;;;;;;;;12.30;99.90;;;;;;5032594;28;19913;-73
2021/04/10 12:20:23;;;;;;;;;;;12.20;99.90;;;;;;5031344;28;20365;-73
2021/04/10 12:22:49;;;;;;;;;;;12.30;99.90;;;;;;5044495;28;19913;-73
2021/04/10 12:25:15;;;;;;;;;;;12.50;99.90;;;;;;5049823;28;19917;-73
2021/04/10 12:27:41;;;;;;;;;;;12.40;99.90;;;;;;5038795;28;19917;-72
2021/04/10 12:30:07;;;;;;;;;;;12.50;99.90;;;;;;5030975;28;19966;-72
2021/04/10 12:32:33;;;;;;;;;;;12.70;99.90;;;;;;5052312;28;20357;-73
2021/04/10 12:34:59;;;;;;;;;;;12.60;99.90;;;;;;5058096;28;20003;-73
2021/04/10 12:37:26;;;;;;;;;;;12.80;99.90;;;;;;5052256;28;19913;-73
2021/04/10 12:39:51;;;;;;;;;;;13.00;99.90;;;;;;5048211;28;19919;-55
2021/04/10 12:42:17;;;;;;;;;;;13.10;99.90;;;;;;5050356;28;19920;-73
2021/04/10 12:44:43;;;;;;;;;;;13.00;99.90;;;;;;5046079;28;19956;-73
2021/04/10 12:47:18;;;;;;;;;;;12.80;99.90;;;;;;5036508;28;19939;-74
2021/04/10 12:49:44;;;;;;;;;;;12.80;99.90;;;;;;5049352;28;19920;-74
2021/04/10 12:52:10;;;;;;;;;;;12.80;99.90;;;;;;5041999;28;19913;-74
2021/04/10 12:54:37;;;;;;;;;;;12.60;99.90;;;;;;5036303;28;20007;-72
2021/04/10 12:57:07;;;;;;;;;;;12.60;99.90;;;;;;5036093;28;19909;-73
2021/04/10 12:59:34;;;;;;;;;;;12.50;99.90;;;;;;5035921;28;20270;-73
2021/04/10 13:01:59;;;;;;;;;;;12.70;99.90;;;;;;5046418;28;19963;-72
2021/04/10 13:04:27;;;;;;;;;;;12.90;99.90;;;;;;5065122;28;19948;-72
2021/04/10 13:06:54;;;;;;;;;;;13.20;99.90;;;;;;5070661;28;19912;-72
2021/04/10 13:09:20;;;;;;;;;;;13.20;99.90;;;;;;5056948;28;20489;-72
2021/04/10 13:11:46;;;;;;;;;;;13.40;99.90;;;;;;5054493;28;20016;-73
2021/04/10 13:14:11;;;;;;;;;;;13.50;99.90;;;;;;5071013;28;20333;-72
2021/04/10 13:16:37;;;;;;;;;;;13.60;99.90;;;;;;5040750;28;20000;-72
2021/04/10 13:19:03;;;;;;;;;;;13.80;99.90;;;;;;5048996;28;20000;-71